Time;durP1;ratioP1;P1;durP2;ratioP2;P2;SDS_P1;SDS_P2;PMS_P1;PMS_P2;Temp;Humidity;BMP_temperature;BMP_pressure;BME280_temperature;BME280_humidity;BME280_pressure;Samples;Min_cycle;Max_cycle;Signal;HPM_P1;HPM_P2
2023/03/04 00:00:42;;;;;;;36.15;16.88;;;3.70;58.90;;;;;;5075837;28;20024;-64
2023/03/04 00:03:09;;;;;;;34.25;16.95;;;3.70;58.80;;;;;;5080934;28;20028;-64
2023/03/04 00:05:36;;;;;;;33.75;17.65;;;3.70;59.00;;;;;;5079082;28;20017;-64
2023/03/04 00:08:02;;;;;;;33.40;16.00;;;3.60;59.00;;;;;;5078051;28;20052;-63
2023/03/04 00:10:28;;;;;;;29.25;15.98;;;3.60;59.10;;;;;;5079439;28;20051;-63
2023/03/04 00:12:54;;;;;;;28.48;15.30;;;3.60;59.10;;;;;;5084368;28;20023;-63
2023/03/04 00:15:19;;;;;;;34.15;15.82;;;3.60;59.20;;;;;;5079663;28;20029;-63
2023/03/04 00:17:45;;;;;;;30.08;15.48;;;3.60;59.20;;;;;;5077476;28;20017;-63
2023/03/04 00:20:11;;;;;;;26.48;14.20;;;3.60;59.20;;;;;;5091344;28;20289;-63
2023/03/04 00:22:37;;;;;;;32.03;16.48;;;3.50;59.10;;;;;;5087604;28;20027;-63
2023/03/04 00:25:03;;;;;;;28.23;14.57;;;3.50;59.20;;;;;;5086619;28;20067;-63
2023/03/04 00:27:29;;;;;;;31.42;15.57;;;3.50;59.30;;;;;;5086774;28;20040;-63
2023/03/04 00:29:55;;;;;;;31.85;15.23;;;3.50;59.30;;;;;;5085981;28;20040;-62
2023/03/04 00:32:21;;;;;;;35.20;16.13;;;3.40;59.30;;;;;;5082123;28;20032;-63
2023/03/04 00:34:46;;;;;;;30.05;15.05;;;3.40;59.30;;;;;;5089204;28;20021;-63
2023/03/04 00:37:12;;;;;;;30.00;15.23;;;3.40;59.20;;;;;;5084975;28;20051;-63
2023/03/04 00:39:38;;;;;;;30.63;16.30;;;3.40;59.10;;;;;;5090227;28;20036;-63
2023/03/04 00:42:04;;;;;;;33.75;16.42;;;3.40;59.20;;;;;;5078418;28;20029;-63
2023/03/04 00:44:29;;;;;;;31.52;15.48;;;3.30;59.20;;;;;;5076746;28;20032;-63
2023/03/04 00:46:55;;;;;;;30.42;15.45;;;3.30;59.10;;;;;;5082120;28;20028;-63
2023/03/04 00:49:21;;;;;;;30.88;15.80;;;3.30;59.00;;;;;;5081844;28;20036;-63
2023/03/04 00:51:46;;;;;;;32.58;15.50;;;3.30;59.20;;;;;;5092773;28;20043;-63
2023/03/04 00:54:12;;;;;;;31.17;16.13;;;3.30;59.10;;;;;;5079180;28;20028;-63
2023/03/04 00:56:38;;;;;;;37.97;17.35;;;3.20;59.20;;;;;;5073667;28;20048;-61
2023/03/04 00:59:04;;;;;;;34.70;15.88;;;3.20;59.40;;;;;;5081410;28;20076;-63
2023/03/04 01:01:29;;;;;;;37.97;16.40;;;3.20;59.50;;;;;;5084212;28;20040;-63
2023/03/04 01:03:55;;;;;;;30.58;16.13;;;3.10;59.40;;;;;;5087960;28;20027;-63
2023/03/04 01:06:21;;;;;;;32.25;15.75;;;3.10;59.40;;;;;;5075582;28;20412;-63
2023/03/04 01:08:46;;;;;;;38.50;16.02;;;3.10;59.50;;;;;;5086278;28;20108;-64
2023/03/04 01:11:12;;;;;;;28.17;14.75;;;3.10;59.50;;;;;;5077128;28;20029;-63
2023/03/04 01:13:38;;;;;;;32.20;16.48;;;3.10;59.60;;;;;;5084958;28;20024;-63
2023/03/04 01:16:05;;;;;;;30.02;15.77;;;3.00;59.50;;;;;;5084751;28;20020;-63
2023/03/04 01:18:31;;;;;;;31.63;16.67;;;3.00;59.30;;;;;;5081332;28;20047;-63
2023/03/04 01:20:57;;;;;;;32.78;15.73;;;3.00;59.30;;;;;;5079668;28;20075;-61
2023/03/04 01:23:22;;;;;;;28.17;15.10;;;3.00;59.40;;;;;;5084597;28;20025;-62
2023/03/04 01:25:48;;;;;;;33.63;16.50;;;2.90;59.40;;;;;;5066880;28;20031;-64
2023/03/04 01:28:14;;;;;;;31.42;15.88;;;2.90;59.30;;;;;;5081683;28;20035;-63
2023/03/04 01:30:39;;;;;;;32.10;16.30;;;2.90;59.40;;;;;;5074276;28;20032;-63
2023/03/04 01:33:05;;;;;;;32.75;16.55;;;3.10;59.70;;;;;;5082437;28;20024;-61
2023/03/04 01:35:31;;;;;;;33.13;16.63;;;2.90;59.50;;;;;;5081996;28;20085;-62
2023/03/04 01:37:56;;;;;;;31.73;16.40;;;2.80;59.60;;;;;;5080773;28;20087;-62
2023/03/04 01:40:22;;;;;;;35.08;17.23;;;3.20;59.90;;;;;;5079535;28;20028;-63
2023/03/04 01:42:48;;;;;;;32.20;14.77;;;2.80;59.60;;;;;;5079268;28;20021;-62
2023/03/04 01:45:16;;;;;;;34.03;16.13;;;2.80;59.80;;;;;;5076536;28;20027;-62
2023/03/04 01:47:47;;;;;;;35.70;17.05;;;2.80;60.00;;;;;;5084898;28;20187;-62
2023/03/04 01:50:36;;;;;;;30.42;14.48;;;2.80;60.10;;;;;;5075829;28;20016;-63
2023/03/04 01:53:03;;;;;;;31.70;15.75;;;2.80;60.20;;;;;;5075785;28;20028;-62
2023/03/04 01:55:30;;;;;;;33.58;15.90;;;3.10;60.00;;;;;;5073915;28;20029;-61
2023/03/04 01:57:58;;;;;;;46.75;16.70;;;2.80;59.90;;;;;;5082728;28;20032;-63
2023/03/04 02:00:30;;;;;;;33.90;17.10;;;2.70;59.70;;;;;;5075951;28;20017;-63
2023/03/04 02:03:06;;;;;;;32.42;16.90;;;2.70;59.80;;;;;;5079096;28;20046;-61
2023/03/04 02:05:31;;;;;;;34.92;17.60;;;2.70;59.80;;;;;;5078476;28;20108;-62
2023/03/04 02:07:58;;;;;;;32.67;17.10;;;2.70;59.60;;;;;;5076915;28;20075;-63
2023/03/04 02:10:24;;;;;;;35.35;17.27;;;2.70;59.70;;;;;;5082401;28;20539;-62
2023/03/04 02:12:51;;;;;;;36.72;16.70;;;2.60;59.80;;;;;;5080892;28;20033;-64
2023/03/04 02:15:17;;;;;;;34.25;15.95;;;2.60;59.80;;;;;;5076430;28;20021;-63
2023/03/04 02:17:42;;;;;;;40.38;17.58;;;2.60;59.80;;;;;;5088078;28;20124;-62
2023/03/04 02:20:29;;;;;;;36.17;16.70;;;2.60;60.00;;;;;;5083902;28;20032;-62
2023/03/04 02:23:19;;;;;;;32.97;16.35;;;2.60;60.60;;;;;;5077631;28;20028;-62
2023/03/04 02:26:10;;;;;;;35.78;16.10;;;2.60;60.20;;;;;;5079823;28;20039;-63
2023/03/04 02:28:35;;;;;;;32.35;17.02;;;2.60;60.20;;;;;;5085153;28;20047;-61
2023/03/04 02:31:01;;;;;;;38.45;16.27;;;2.60;59.80;;;;;;5080903;28;20024;-63
2023/03/04 02:33:26;;;;;;;33.72;16.33;;;2.60;59.70;;;;;;5074891;28;20032;-62
2023/03/04 02:35:52;;;;;;;35.13;17.30;;;2.50;59.70;;;;;;5075783;28;20033;-63
2023/03/04 02:38:18;;;;;;;35.30;16.50;;;2.50;59.90;;;;;;5078462;28;20044;-63
2023/03/04 02:40:47;;;;;;;36.10;17.45;;;2.50;59.90;;;;;;5086396;28;20039;-63
2023/03/04 02:43:13;;;;;;;34.88;17.35;;;2.80;60.40;;;;;;5081995;28;20025;-63
2023/03/04 02:45:39;;;;;;;37.10;17.15;;;2.50;60.10;;;;;;5086102;28;20032;-63
2023/03/04 02:48:06;;;;;;;34.20;16.77;;;2.50;60.00;;;;;;5084690;28;20047;-63
2023/03/04 02:50:36;;;;;;;33.78;16.40;;;2.50;60.10;;;;;;5083153;28;20037;-63
2023/03/04 02:53:02;;;;;;;34.88;17.15;;;2.50;60.30;;;;;;5082209;28;20032;-63
2023/03/04 02:55:28;;;;;;;36.65;17.85;;;2.40;60.20;;;;;;5088307;28;20032;-62
2023/03/04 02:57:54;;;;;;;41.30;18.23;;;2.60;60.40;;;;;;5080467;28;20475;-63
2023/03/04 03:00:19;;;;;;;39.42;17.88;;;2.40;60.30;;;;;;5082747;28;20031;-63
2023/03/04 03:02:45;;;;;;;31.13;16.45;;;2.40;60.40;;;;;;5076835;28;20070;-62
2023/03/04 03:05:11;;;;;;;39.03;17.38;;;2.40;60.30;;;;;;5076872;28;20100;-61
2023/03/04 03:07:37;;;;;;;40.67;17.45;;;2.40;60.30;;;;;;5080827;28;20024;-63
2023/03/04 03:10:04;;;;;;;39.33;18.35;;;2.40;60.50;;;;;;5083955;28;20034;-63
2023/03/04 03:12:29;;;;;;;36.58;17.65;;;2.30;60.70;;;;;;5085784;28;20035;-62
2023/03/04 03:14:55;;;;;;;33.38;16.83;;;2.30;60.70;;;;;;5090177;28;20145;-63
2023/03/04 03:17:20;;;;;;;32.42;17.20;;;2.30;60.80;;;;;;5080211;28;20567;-61
2023/03/04 03:19:46;;;;;;;34.00;15.38;;;2.30;60.90;;;;;;5077997;28;20080;-63
2023/03/04 03:22:11;;;;;;;38.13;17.13;;;2.40;61.00;;;;;;5086169;28;20031;-62
2023/03/04 03:24:37;;;;;;;40.55;18.30;;;2.30;61.00;;;;;;5075718;28;20028;-63
2023/03/04 03:27:03;;;;;;;44.42;18.38;;;2.50;61.10;;;;;;5078413;28;20031;-62
2023/03/04 03:29:28;;;;;;;31.33;16.15;;;2.30;60.80;;;;;;5083770;28;20092;-61
2023/03/04 03:31:55;;;;;;;33.38;16.08;;;2.30;60.80;;;;;;5078471;28;20087;-63
2023/03/04 03:34:21;;;;;;;33.00;16.95;;;2.30;60.70;;;;;;5088451;28;20050;-62
2023/03/04 03:36:47;;;;;;;33.78;15.73;;;2.30;60.70;;;;;;5070762;28;20511;-64
2023/03/04 03:39:14;;;;;;;37.80;17.83;;;2.30;60.70;;;;;;5085602;28;20052;-63
2023/03/04 03:41:40;;;;;;;35.85;17.40;;;2.20;60.80;;;;;;5078625;28;20051;-63
2023/03/04 03:44:06;;;;;;;39.10;18.50;;;2.40;60.80;;;;;;5085142;28;20021;-61
2023/03/04 03:46:32;;;;;;;40.08;18.45;;;2.20;60.90;;;;;;5083908;28;20032;-62
2023/03/04 03:48:58;;;;;;;37.00;18.08;;;2.20;60.60;;;;;;5079619;28;20051;-62
2023/03/04 03:51:23;;;;;;;38.78;19.13;;;2.40;60.80;;;;;;5075742;28;20147;-61
2023/03/04 03:53:49;;;;;;;44.42;18.98;;;2.10;60.60;;;;;;5087918;28;20020;-61
2023/03/04 03:56:14;;;;;;;40.42;18.70;;;2.10;60.60;;;;;;5073602;28;20020;-61
2023/03/04 03:58:40;;;;;;;37.78;18.02;;;2.10;60.50;;;;;;5081784;28;20076;-61
2023/03/04 04:01:06;;;;;;;44.13;19.08;;;2.20;60.60;;;;;;5073205;28;20017;-62
2023/03/04 04:03:31;;;;;;;39.33;18.65;;;2.00;60.70;;;;;;5079444;28;20050;-62
2023/03/04 04:05:57;;;;;;;36.03;17.60;;;2.00;60.90;;;;;;5075257;28;20111;-63
2023/03/04 04:08:22;;;;;;;45.90;20.73;;;1.90;61.00;;;;;;5079787;28;20530;-62
2023/03/04 04:10:48;;;;;;;41.35;20.30;;;2.10;61.10;;;;;;5085548;28;20048;-62
2023/03/04 04:13:14;;;;;;;40.72;19.85;;;2.20;61.20;;;;;;5072371;28;20033;-62
2023/03/04 04:15:39;;;;;;;53.03;20.00;;;1.90;61.10;;;;;;5064014;28;20021;-62
2023/03/04 04:18:06;;;;;;;37.10;19.25;;;1.90;61.20;;;;;;5064788;28;20056;-62
2023/03/04 04:20:32;;;;;;;43.50;20.13;;;1.90;61.50;;;;;;5063443;28;20029;-62
2023/03/04 04:22:57;;;;;;;50.88;22.38;;;1.80;61.40;;;;;;5072321;28;20029;-62
2023/03/04 04:25:23;;;;;;;54.95;25.45;;;1.90;62.00;;;;;;5077554;28;20029;-63
2023/03/04 04:27:48;;;;;;;58.97;27.65;;;1.90;62.10;;;;;;5087938;28;20040;-62
2023/03/04 04:30:14;;;;;;;60.05;26.55;;;1.90;63.10;;;;;;5077318;28;20033;-62
2023/03/04 04:32:40;;;;;;;60.15;27.60;;;1.90;63.30;;;;;;5086086;28;20048;-62
2023/03/04 04:35:06;;;;;;;60.00;27.38;;;2.00;64.60;;;;;;5081506;28;20043;-62
2023/03/04 04:37:32;;;;;;;63.17;28.35;;;2.00;64.90;;;;;;5085833;28;20052;-63
2023/03/04 04:39:58;;;;;;;53.83;26.30;;;2.10;64.00;;;;;;5086076;28;20039;-63
2023/03/04 04:42:23;;;;;;;49.38;23.63;;;2.20;64.40;;;;;;5071775;28;20048;-62
2023/03/04 04:44:49;;;;;;;43.30;22.95;;;2.20;64.10;;;;;;5083030;28;20031;-63
2023/03/04 04:47:15;;;;;;;44.38;22.40;;;2.20;64.10;;;;;;5083911;28;20076;-62
2023/03/04 04:49:40;;;;;;;51.35;24.50;;;2.30;63.90;;;;;;5073720;28;20040;-63
2023/03/04 04:52:06;;;;;;;54.47;24.77;;;2.30;63.80;;;;;;5078433;28;20056;-63
2023/03/04 04:54:32;;;;;;;48.33;24.73;;;2.30;63.80;;;;;;5083118;28;20059;-62
2023/03/04 04:56:57;;;;;;;53.58;25.02;;;2.60;64.00;;;;;;5077062;28;20040;-62
2023/03/04 04:59:23;;;;;;;49.67;24.38;;;2.30;63.70;;;;;;5079461;28;20024;-64
2023/03/04 05:01:49;;;;;;;50.38;24.30;;;2.40;63.70;;;;;;5086556;28;20027;-63
2023/03/04 05:04:15;;;;;;;55.42;26.65;;;2.30;63.30;;;;;;5076302;28;20051;-63
2023/03/04 05:06:40;;;;;;;58.90;27.25;;;2.20;64.00;;;;;;5085689;28;20052;-64
2023/03/04 05:09:06;;;;;;;48.05;23.08;;;2.20;64.20;;;;;;5086002;28;20479;-62
2023/03/04 05:11:32;;;;;;;50.47;23.23;;;2.20;63.70;;;;;;5086797;28;20039;-64
2023/03/04 05:13:57;;;;;;;51.20;24.05;;;2.20;63.60;;;;;;5089425;28;20024;-65
2023/03/04 05:16:23;;;;;;;54.38;23.60;;;2.10;63.50;;;;;;5082102;28;20025;-65
2023/03/04 05:18:49;;;;;;;51.97;24.48;;;2.20;63.50;;;;;;5085020;28;20058;-63
2023/03/04 05:21:14;;;;;;;50.47;23.05;;;2.10;63.50;;;;;;5076489;28;20037;-64
2023/03/04 05:23:42;;;;;;;56.05;22.35;;;2.10;63.40;;;;;;5080944;28;20032;-63
2023/03/04 05:26:10;;;;;;;42.90;21.90;;;2.00;63.40;;;;;;5082854;28;20080;-63
2023/03/04 05:28:36;;;;;;;53.08;24.88;;;2.00;63.30;;;;;;5081103;28;20058;-63
2023/03/04 05:31:02;;;;;;;51.95;23.48;;;2.10;63.30;;;;;;5083975;28;20023;-63
2023/03/04 05:33:28;;;;;;;49.20;24.17;;;2.00;63.20;;;;;;5085498;28;20506;-64
2023/03/04 05:35:54;;;;;;;52.13;22.98;;;2.00;63.20;;;;;;5083982;28;20035;-63
2023/03/04 05:38:20;;;;;;;49.28;23.60;;;1.90;63.00;;;;;;5079697;28;20036;-63
2023/03/04 05:40:47;;;;;;;48.40;22.30;;;1.90;62.90;;;;;;5089484;28;20012;-63
2023/03/04 05:43:14;;;;;;;48.40;22.20;;;1.90;62.70;;;;;;5081291;28;20092;-63
2023/03/04 05:45:40;;;;;;;50.20;24.73;;;1.90;62.50;;;;;;5086400;28;20096;-63
2023/03/04 05:48:07;;;;;;;47.72;22.83;;;2.00;62.80;;;;;;5078539;28;20032;-63
2023/03/04 05:50:34;;;;;;;48.83;24.10;;;2.00;63.00;;;;;;5087717;28;20024;-62
2023/03/04 05:52:59;;;;;;;53.40;24.65;;;1.80;62.80;;;;;;5085603;28;20032;-61
2023/03/04 05:55:27;;;;;;;48.45;23.83;;;1.80;62.80;;;;;;5088466;28;20055;-62
2023/03/04 05:57:53;;;;;;;49.35;22.20;;;1.90;63.00;;;;;;5083359;28;20093;-62
2023/03/04 06:00:19;;;;;;;46.33;23.17;;;1.80;62.80;;;;;;5084472;28;20055;-61
2023/03/04 06:02:44;;;;;;;49.17;23.65;;;1.70;62.70;;;;;;5075207;28;20025;-62
2023/03/04 06:05:12;;;;;;;57.40;24.70;;;1.80;62.80;;;;;;5079237;28;20491;-62
2023/03/04 06:07:38;;;;;;;48.65;24.13;;;1.70;63.00;;;;;;5081781;28;20056;-63
2023/03/04 06:10:05;;;;;;;51.55;23.58;;;1.60;63.00;;;;;;5084784;28;20017;-62
2023/03/04 06:12:31;;;;;;;49.80;23.48;;;1.60;63.20;;;;;;5072465;28;20063;-62
2023/03/04 06:14:56;;;;;;;50.90;23.80;;;1.60;63.20;;;;;;5083050;28;20414;-63
2023/03/04 06:17:22;;;;;;;48.42;22.88;;;1.60;63.30;;;;;;5088898;28;20024;-63
2023/03/04 06:19:48;;;;;;;60.08;23.48;;;1.70;63.80;;;;;;5082139;28;20052;-62
2023/03/04 06:22:13;;;;;;;47.10;22.70;;;1.90;63.70;;;;;;5087018;28;20025;-62
2023/03/04 06:24:39;;;;;;;44.85;21.92;;;1.60;63.70;;;;;;5086958;28;20035;-62
2023/03/04 06:27:04;;;;;;;47.80;22.30;;;1.60;63.70;;;;;;5083309;28;20059;-62
2023/03/04 06:29:30;;;;;;;48.88;22.35;;;1.80;63.90;;;;;;5080108;28;20044;-62
2023/03/04 06:31:56;;;;;;;51.28;22.52;;;1.60;63.90;;;;;;5072760;28;20096;-63
2023/03/04 06:34:22;;;;;;;45.65;22.58;;;1.70;64.10;;;;;;5083896;28;20592;-63
2023/03/04 06:36:48;;;;;;;54.63;22.58;;;1.60;64.00;;;;;;5082458;28;20055;-62
2023/03/04 06:39:13;;;;;;;45.90;22.88;;;1.70;64.00;;;;;;5080611;28;20052;-62
2023/03/04 06:41:39;;;;;;;49.20;22.55;;;1.70;63.80;;;;;;5077227;28;20033;-62
2023/03/04 06:44:05;;;;;;;45.42;22.83;;;1.70;63.70;;;;;;5078000;28;20037;-63
2023/03/04 06:46:33;;;;;;;45.33;21.08;;;1.70;63.50;;;;;;5078974;28;20035;-62
2023/03/04 06:48:58;;;;;;;54.40;24.85;;;1.70;63.70;;;;;;5070551;28;20082;-61
2023/03/04 06:51:24;;;;;;;50.40;24.27;;;2.00;63.80;;;;;;5087393;28;20028;-62
2023/03/04 06:53:49;;;;;;;48.58;23.90;;;1.80;64.00;;;;;;5074777;28;20044;-63
2023/03/04 06:56:16;;;;;;;50.08;24.63;;;1.80;64.20;;;;;;5081409;28;20032;-61
2023/03/04 06:58:42;;;;;;;54.20;25.55;;;1.90;64.20;;;;;;5082854;28;20031;-63
2023/03/04 07:01:18;;;;;;;54.90;25.27;;;2.00;64.20;;;;;;5082586;28;20475;-62
2023/03/04 07:03:44;;;;;;;56.10;25.33;;;2.00;64.40;;;;;;5090080;28;20103;-62
2023/03/04 07:06:12;;;;;;;47.03;23.98;;;2.10;64.30;;;;;;5078347;28;20036;-62
2023/03/04 07:08:38;;;;;;;59.05;26.20;;;2.30;64.60;;;;;;5081126;28;20062;-62
2023/03/04 07:11:03;;;;;;;49.03;25.00;;;2.30;64.70;;;;;;5079182;28;20085;-62
2023/03/04 07:13:29;;;;;;;55.47;25.08;;;2.40;65.00;;;;;;5077635;28;20064;-62
2023/03/04 07:15:55;;;;;;;58.33;25.25;;;2.50;64.90;;;;;;5078498;28;20095;-62
2023/03/04 07:18:20;;;;;;;52.30;24.65;;;2.60;65.00;;;;;;5074529;28;20083;-61
2023/03/04 07:20:50;;;;;;;56.20;24.60;;;2.70;64.90;;;;;;5081295;28;20020;-63
2023/03/04 07:23:16;;;;;;;48.83;24.15;;;2.90;65.10;;;;;;5069621;28;20035;-63
2023/03/04 07:25:41;;;;;;;47.78;23.38;;;3.20;65.30;;;;;;5072883;28;20049;-63
2023/03/04 07:28:07;;;;;;;46.13;22.58;;;3.20;65.10;;;;;;5084465;28;20063;-63
2023/03/04 07:30:32;;;;;;;46.40;23.08;;;3.40;65.00;;;;;;5081040;28;20055;-63
2023/03/04 07:32:58;;;;;;;50.20;22.75;;;3.50;64.40;;;;;;5072942;28;20032;-63
2023/03/04 07:35:24;;;;;;;62.40;27.58;;;3.60;64.20;;;;;;5082892;28;20090;-63
2023/03/04 07:37:49;;;;;;;56.92;25.27;;;3.70;64.60;;;;;;5073236;28;20044;-63
2023/03/04 07:40:15;;;;;;;52.78;26.00;;;3.80;63.90;;;;;;5069175;28;20043;-63
2023/03/04 07:42:41;;;;;;;39.50;20.35;;;3.80;64.20;;;;;;5075750;28;21864;-63
2023/03/04 07:45:08;;;;;;;50.70;24.55;;;3.90;64.00;;;;;;5086223;28;20025;-63
2023/03/04 07:47:34;;;;;;;51.45;24.95;;;3.80;64.30;;;;;;5073342;28;20094;-63
2023/03/04 07:49:59;;;;;;;44.72;21.95;;;3.90;63.90;;;;;;5071815;28;20463;-63
2023/03/04 07:52:25;;;;;;;52.42;26.17;;;3.90;63.60;;;;;;5077221;28;20025;-62
2023/03/04 07:54:51;;;;;;;46.90;23.33;;;4.00;63.80;;;;;;5077146;28;20029;-63
2023/03/04 07:57:17;;;;;;;74.25;36.08;;;4.00;64.10;;;;;;5070544;28;20032;-63
2023/03/04 07:59:42;;;;;;;48.05;23.65;;;4.10;64.20;;;;;;5079351;28;20029;-63
2023/03/04 08:02:09;;;;;;;40.47;21.70;;;4.20;64.20;;;;;;5073439;28;20032;-63
2023/03/04 08:04:35;;;;;;;41.17;20.77;;;4.30;63.70;;;;;;5081577;28;20032;-62
2023/03/04 08:07:01;;;;;;;41.28;21.75;;;4.30;63.50;;;;;;5080060;28;20094;-63
2023/03/04 08:09:26;;;;;;;36.90;19.10;;;4.40;63.30;;;;;;5081278;28;20052;-63
2023/03/04 08:11:52;;;;;;;36.72;19.50;;;4.40;63.10;;;;;;5075884;28;20043;-63
2023/03/04 08:14:18;;;;;;;63.60;26.77;;;4.50;63.20;;;;;;5069640;28;20025;-63
2023/03/04 08:16:43;;;;;;;43.38;22.40;;;4.50;63.30;;;;;;5077579;28;20084;-62
2023/03/04 08:19:10;;;;;;;42.20;20.08;;;4.50;63.20;;;;;;5083533;28;20054;-62
2023/03/04 08:21:36;;;;;;;49.85;23.48;;;4.60;62.80;;;;;;5079287;28;20020;-61
2023/03/04 08:24:06;;;;;;;45.95;20.23;;;4.60;62.80;;;;;;5082960;28;20074;-63
2023/03/04 08:26:37;;;;;;;35.58;18.88;;;4.60;62.90;;;;;;5072875;28;20109;-63
2023/03/04 08:29:04;;;;;;;35.97;17.60;;;4.70;62.90;;;;;;5077857;28;20065;-63
2023/03/04 08:31:29;;;;;;;37.65;18.65;;;4.70;62.30;;;;;;5083229;28;20024;-63
2023/03/04 08:33:55;;;;;;;41.10;17.98;;;4.70;62.60;;;;;;5070982;28;20018;-63
2023/03/04 08:36:21;;;;;;;30.48;17.35;;;4.70;62.10;;;;;;5099371;28;20030;-63
2023/03/04 08:38:47;;;;;;;31.80;16.42;;;4.80;62.40;;;;;;5075825;28;20053;-63
2023/03/04 08:41:13;;;;;;;39.88;17.23;;;4.80;62.70;;;;;;5082792;28;20039;-63
2023/03/04 08:43:38;;;;;;;31.23;16.10;;;4.90;62.40;;;;;;5088837;28;20021;-63
2023/03/04 08:46:05;;;;;;;28.40;14.15;;;4.90;62.50;;;;;;5086530;28;20154;-63
2023/03/04 08:48:31;;;;;;;33.08;15.13;;;5.00;62.30;;;;;;5067089;28;20036;-63
2023/03/04 08:50:57;;;;;;;26.33;13.82;;;5.10;62.20;;;;;;5085925;28;20024;-63
2023/03/04 08:53:23;;;;;;;30.10;14.68;;;5.20;62.10;;;;;;5084972;28;20024;-61
2023/03/04 08:55:51;;;;;;;28.15;14.63;;;5.30;61.60;;;;;;5079021;28;20028;-63
2023/03/04 08:58:17;;;;;;;26.75;13.88;;;5.40;61.60;;;;;;5081046;28;20025;-63
2023/03/04 09:00:47;;;;;;;22.38;12.80;;;5.50;61.40;;;;;;5081566;28;20106;-63
2023/03/04 09:03:14;;;;;;;30.38;15.48;;;5.50;61.20;;;;;;5075492;28;20059;-62
2023/03/04 09:05:40;;;;;;;27.15;14.77;;;5.60;60.90;;;;;;5074167;28;20025;-62
2023/03/04 09:08:06;;;;;;;31.17;16.02;;;5.60;60.40;;;;;;5081170;28;20475;-62
2023/03/04 09:10:32;;;;;;;25.00;13.90;;;5.60;60.10;;;;;;5075590;28;20028;-61
2023/03/04 09:12:58;;;;;;;27.08;13.57;;;5.50;60.80;;;;;;5080565;28;20066;-62
2023/03/04 09:15:24;;;;;;;24.60;13.40;;;5.50;60.40;;;;;;5082763;28;20448;-62
2023/03/04 09:17:49;;;;;;;28.25;14.23;;;5.40;60.50;;;;;;5081930;28;20032;-62
2023/03/04 09:20:16;;;;;;;24.65;14.13;;;5.40;60.50;;;;;;5082791;28;20020;-63
2023/03/04 09:22:42;;;;;;;27.80;14.68;;;5.40;60.60;;;;;;5083465;28;20099;-63
2023/03/04 09:25:09;;;;;;;27.60;14.88;;;5.40;60.20;;;;;;5083375;28;20047;-63
2023/03/04 09:27:35;;;;;;;28.33;14.30;;;5.40;60.10;;;;;;5078137;28;20084;-63
2023/03/04 09:30:00;;;;;;;23.58;12.23;;;5.30;60.20;;;;;;5084009;28;20055;-63
2023/03/04 09:32:26;;;;;;;21.10;11.95;;;5.30;60.60;;;;;;5076739;28;20024;-63
2023/03/04 09:34:51;;;;;;;26.38;12.00;;;5.30;60.80;;;;;;5080347;28;20076;-63
2023/03/04 09:37:17;;;;;;;21.88;12.32;;;5.40;61.10;;;;;;5091876;28;20370;-63
2023/03/04 09:39:43;;;;;;;21.73;11.52;;;5.50;61.10;;;;;;5082181;28;20041;-63
2023/03/04 09:42:25;;;;;;;24.42;11.88;;;5.50;60.60;;;;;;5086626;28;20028;-63
2023/03/04 09:44:54;;;;;;;30.95;12.40;;;5.60;60.40;;;;;;5084403;28;20017;-63
2023/03/04 09:47:22;;;;;;;22.25;12.43;;;5.60;60.20;;;;;;5088269;28;20151;-63
2023/03/04 09:49:57;;;;;;;22.88;12.00;;;5.60;60.10;;;;;;5084898;28;20067;-63
2023/03/04 09:52:48;;;;;;;34.72;18.27;;;5.60;60.10;;;;;;5084544;28;20052;-63
2023/03/04 09:55:22;;;;;;;27.98;14.05;;;5.70;60.30;;;;;;5084386;28;20012;-63
2023/03/04 09:58:00;;;;;;;24.95;12.57;;;5.70;59.90;;;;;;5089058;28;20107;-63
2023/03/04 10:00:41;;;;;;;30.15;15.20;;;5.70;59.80;;;;;;5084160;28;20470;-63
2023/03/04 10:03:41;;;;;;;26.27;13.32;;;5.70;60.00;;;;;;5078217;28;20056;-63
2023/03/04 10:06:14;;;;;;;24.20;13.20;;;5.60;60.00;;;;;;5086432;28;20021;-63
2023/03/04 10:08:42;;;;;;;28.27;13.10;;;5.60;59.80;;;;;;5083360;28;20112;-63
2023/03/04 10:11:20;;;;;;;33.65;13.63;;;5.60;59.80;;;;;;5088951;28;20032;-63
2023/03/04 10:14:17;;;;;;;26.25;13.85;;;5.60;60.00;;;;;;5078768;28;20020;-63
2023/03/04 10:17:02;;;;;;;26.50;13.90;;;5.60;59.90;;;;;;5076801;28;20033;-63
2023/03/04 10:19:36;;;;;;;32.53;14.93;;;5.60;59.90;;;;;;5084093;28;20028;-63
2023/03/04 10:22:29;;;;;;;27.65;15.35;;;5.60;59.90;;;;;;5085461;28;20021;-63
2023/03/04 10:24:57;;;;;;;32.08;14.95;;;5.50;59.60;;;;;;5073275;28;20020;-64
2023/03/04 10:27:23;;;;;;;30.63;14.30;;;5.50;59.60;;;;;;5070663;28;20032;-62
2023/03/04 10:29:50;;;;;;;27.13;13.85;;;5.40;59.80;;;;;;5084129;28;20021;-62
2023/03/04 10:32:17;;;;;;;27.25;13.60;;;5.40;59.90;;;;;;5085659;28;20031;-63
2023/03/04 10:34:43;;;;;;;26.90;14.02;;;5.40;60.20;;;;;;5086185;28;20024;-62
2023/03/04 10:37:10;;;;;;;24.35;12.82;;;5.40;60.20;;;;;;5078532;28;20035;-63
2023/03/04 10:39:45;;;;;;;24.92;13.75;;;5.50;60.30;;;;;;5078137;28;20481;-63
2023/03/04 10:42:14;;;;;;;25.73;12.93;;;5.50;60.10;;;;;;5079228;28;20016;-63
2023/03/04 10:44:57;;;;;;;29.45;14.23;;;5.50;59.90;;;;;;5082676;28;20036;-62
2023/03/04 10:47:26;;;;;;;25.02;13.73;;;5.50;60.10;;;;;;5082447;28;20028;-62
2023/03/04 10:49:54;;;;;;;27.92;14.48;;;5.50;59.80;;;;;;5082327;28;20037;-62
2023/03/04 10:52:30;;;;;;;23.67;12.57;;;5.50;60.00;;;;;;5086770;28;20454;-62
2023/03/04 10:55:13;;;;;;;29.05;13.52;;;5.50;59.80;;;;;;5078777;28;20134;-62
2023/03/04 10:57:42;;;;;;;23.60;13.13;;;5.40;59.80;;;;;;5086748;28;20374;-62
2023/03/04 11:00:16;;;;;;;21.13;11.90;;;5.40;59.50;;;;;;5077622;28;20028;-62
2023/03/04 11:02:46;;;;;;;21.70;12.60;;;5.40;59.60;;;;;;5083216;28;20016;-62
2023/03/04 11:05:18;;;;;;;19.88;11.23;;;5.30;59.70;;;;;;5083117;28;20040;-63
2023/03/04 11:07:53;;;;;;;24.52;11.23;;;5.30;59.80;;;;;;5081932;28;20099;-62
2023/03/04 11:10:18;;;;;;;21.98;11.98;;;5.30;60.00;;;;;;5076315;28;20047;-64
2023/03/04 11:12:50;;;;;;;19.15;10.50;;;5.30;60.10;;;;;;5077873;28;20024;-62
2023/03/04 11:15:26;;;;;;;20.92;10.88;;;5.30;60.10;;;;;;5082505;28;20526;-62
2023/03/04 11:18:12;;;;;;;21.50;11.13;;;5.30;60.20;;;;;;5087693;28;20020;-62
2023/03/04 11:20:45;;;;;;;22.55;10.50;;;5.30;60.40;;;;;;5075982;28;20097;-62
2023/03/04 11:23:31;;;;;;;22.05;11.88;;;5.40;60.20;;;;;;5078524;28;20049;-61
2023/03/04 11:26:10;;;;;;;63.22;31.00;;;5.40;60.30;;;;;;5080497;28;20105;-62
2023/03/04 11:28:40;;;;;;;49.33;25.88;;;5.40;60.10;;;;;;5076847;28;20036;-63
2023/03/04 11:31:14;;;;;;;25.52;14.88;;;5.40;59.80;;;;;;5083201;28;20020;-63
2023/03/04 11:33:41;;;;;;;20.65;10.85;;;5.50;59.90;;;;;;5080131;28;20036;-63
2023/03/04 11:36:30;;;;;;;26.10;13.20;;;5.50;59.80;;;;;;5080371;28;20017;-63
2023/03/04 11:38:57;;;;;;;24.60;12.93;;;5.40;59.50;;;;;;5078759;28;20066;-63
2023/03/04 11:41:31;;;;;;;24.15;12.35;;;5.40;59.60;;;;;;5079061;28;20032;-62
2023/03/04 11:43:58;;;;;;;22.90;12.20;;;5.40;59.70;;;;;;5073673;28;20057;-61
2023/03/04 11:46:38;;;;;;;25.83;13.10;;;5.40;60.60;;;;;;5080213;28;20048;-61
2023/03/04 11:49:16;;;;;;;27.88;14.68;;;5.30;60.10;;;;;;5079815;28;20166;-62
2023/03/04 11:51:51;;;;;;;26.90;14.07;;;5.40;60.10;;;;;;5074284;28;20024;-64
2023/03/04 11:54:47;;;;;;;29.88;13.68;;;5.30;59.90;;;;;;5084455;28;20052;-63
2023/03/04 11:57:36;;;;;;;27.08;13.02;;;5.30;59.70;;;;;;5084911;28;20057;-62
2023/03/04 12:00:34;;;;;;;26.55;13.93;;;5.30;59.90;;;;;;5076152;28;20054;-63
2023/03/04 12:03:25;;;;;;;28.70;14.77;;;5.20;59.90;;;;;;5082958;28;20073;-63
2023/03/04 12:05:51;;;;;;;24.35;12.82;;;5.20;60.20;;;;;;5079004;28;20029;-62
2023/03/04 12:08:38;;;;;;;26.58;13.23;;;5.20;59.90;;;;;;5081202;28;20036;-62
2023/03/04 12:11:14;;;;;;;24.67;13.77;;;5.20;60.00;;;;;;5080304;28;20844;-62
2023/03/04 12:13:58;;;;;;;26.73;13.00;;;5.20;60.00;;;;;;5078577;28;20033;-61
2023/03/04 12:16:46;;;;;;;29.13;13.95;;;5.30;60.00;;;;;;5084917;28;20122;-63
2023/03/04 12:19:31;;;;;;;24.67;12.45;;;5.30;60.20;;;;;;5072943;28;20558;-62
2023/03/04 12:22:15;;;;;;;28.58;13.23;;;5.30;60.00;;;;;;5086763;28;20440;-64
2023/03/04 12:25:07;;;;;;;24.85;13.35;;;5.30;60.20;;;;;;5087078;28;20040;-62
2023/03/04 12:27:50;;;;;;;26.10;13.43;;;5.40;60.10;;;;;;5087121;28;20032;-62
2023/03/04 12:30:24;;;;;;;29.95;14.02;;;5.40;60.00;;;;;;5081985;28;20100;-63
2023/03/04 12:33:06;;;;;;;27.63;13.52;;;5.50;59.90;;;;;;5089485;28;20024;-62
2023/03/04 12:36:15;;;;;;;26.65;13.60;;;5.50;59.90;;;;;;5081783;28;20289;-62
2023/03/04 12:38:55;;;;;;;23.83;13.02;;;5.50;59.90;;;;;;5059224;28;20053;-62
2023/03/04 12:41:58;;;;;;;24.92;12.80;;;5.50;59.50;;;;;;4958507;28;20040;-62
2023/03/04 12:44:24;;;;;;;29.63;14.38;;;5.50;59.60;;;;;;5065109;28;20036;-62